Time;durP1;ratioP1;P1;durP2;ratioP2;P2;SDS_P1;SDS_P2;PMS_P1;PMS_P2;Temp;Humidity;BMP_temperature;BMP_pressure;BME280_temperature;BME280_humidity;BME280_pressure;Samples;Min_cycle;Max_cycle;Signal;HPM_P1;HPM_P2
2021/09/17 00:01:35;;;;;;;31.60;9.63;;;615.20;1689.60;;;;;;5096476;28;20424;-62
2021/09/17 00:04:00;;;;;;;30.77;10.48;;;615.10;1689.60;;;;;;5096322;28;20028;-62
2021/09/17 00:06:26;;;;;;;37.30;10.52;;;615.10;1664.00;;;;;;5096757;28;20020;-62
2021/09/17 00:08:52;;;;;;;52.55;11.73;;;615.10;1664.00;;;;;;5096002;28;20016;-62
2021/09/17 00:11:18;;;;;;;64.55;13.95;;;615.10;1638.40;;;;;;5095940;28;20058;-62
2021/09/17 00:13:44;;;;;;;71.68;14.18;;;615.10;1638.40;;;;;;5095944;28;20469;-62
2021/09/17 00:16:09;;;;;;;57.30;12.95;;;615.10;1638.40;;;;;;5096146;28;20427;-62
2021/09/17 00:18:35;;;;;;;57.72;11.98;;;615.10;1638.40;;;;;;5096298;28;20024;-62
2021/09/17 00:21:01;;;;;;;56.83;12.73;;;615.10;1612.80;;;;;;5095936;28;20466;-62
2021/09/17 00:23:27;;;;;;;55.03;11.75;;;615.00;1612.80;;;;;;5096068;28;20028;-62
2021/09/17 00:25:53;;;;;;;58.15;12.40;;;615.10;1612.80;;;;;;5096000;28;20016;-62
2021/09/17 00:28:18;;;;;;;57.38;12.60;;;615.00;1612.80;;;;;;5095584;28;20024;-62
2021/09/17 00:30:45;;;;;;;51.35;14.02;;;615.00;1612.80;;;;;;5095711;28;20024;-62
2021/09/17 00:33:11;;;;;;;66.22;16.45;;;615.00;1612.80;;;;;;5095499;28;20035;-62
2021/09/17 00:35:36;;;;;;;60.92;17.40;;;615.00;1638.40;;;;;;5095846;28;20590;-62
2021/09/17 00:38:03;;;;;;;58.38;15.93;;;615.00;1689.60;;;;;;5095643;28;20039;-62
2021/09/17 00:40:30;;;;;;;59.08;16.58;;;615.00;1689.60;;;;;;5095744;28;20412;-62
2021/09/17 00:42:56;;;;;;;63.10;17.30;;;615.00;1689.60;;;;;;5093829;28;20036;-62
2021/09/17 00:45:22;;;;;;;47.13;16.42;;;614.90;1689.60;;;;;;5095489;28;20347;-62
2021/09/17 00:47:47;;;;;;;72.20;19.08;;;614.90;1715.20;;;;;;5095554;28;20024;-62
2021/09/17 00:50:20;;;;;;;48.53;17.17;;;614.90;1715.20;;;;;;5095541;28;20034;-62
2021/09/17 00:52:47;;;;;;;49.78;15.02;;;614.90;1715.20;;;;;;5094140;28;20128;-62
2021/09/17 00:55:14;;;;;;;38.13;13.10;;;614.90;1689.60;;;;;;5095557;28;20016;-62
2021/09/17 00:57:40;;;;;;;41.70;12.20;;;614.90;1689.60;;;;;;5093581;28;20035;-62
2021/09/17 01:00:09;;;;;;;36.47;12.20;;;614.80;1689.60;;;;;;5094471;28;20107;-62
2021/09/17 01:02:35;;;;;;;38.78;11.38;;;614.90;1689.60;;;;;;5095780;28;20116;-63
2021/09/17 01:05:02;;;;;;;33.78;11.63;;;614.80;1689.60;;;;;;5095336;28;20069;-62
2021/09/17 01:07:28;;;;;;;33.60;11.38;;;614.80;1689.60;;;;;;5094952;28;20485;-62
2021/09/17 01:09:54;;;;;;;33.50;10.52;;;614.70;1715.20;;;;;;5094913;28;20066;-62
2021/09/17 01:12:20;;;;;;;32.35;10.65;;;614.80;1715.20;;;;;;5094566;28;20477;-62
2021/09/17 01:14:46;;;;;;;40.05;11.18;;;614.80;1715.20;;;;;;5095109;28;20077;-62
2021/09/17 01:17:13;;;;;;;34.13;10.73;;;614.70;1740.80;;;;;;5094838;28;20036;-62
2021/09/17 01:19:39;;;;;;;28.48;9.70;;;614.70;1715.20;;;;;;5094918;28;20020;-62
2021/09/17 01:22:08;;;;;;;25.52;8.98;;;614.70;1715.20;;;;;;5094830;28;20024;-62
2021/09/17 01:24:35;;;;;;;30.20;9.27;;;614.70;1740.80;;;;;;5095005;28;20103;-62
2021/09/17 01:27:00;;;;;;;29.88;9.48;;;614.70;1740.80;;;;;;5094689;28;20116;-62
2021/09/17 01:29:27;;;;;;;34.22;9.45;;;614.70;1740.80;;;;;;5094785;28;20044;-62
2021/09/17 01:31:52;;;;;;;31.65;9.48;;;614.70;1740.80;;;;;;5094824;28;20047;-62
2021/09/17 01:34:21;;;;;;;30.27;9.10;;;614.70;1715.20;;;;;;5094672;28;20454;-62
2021/09/17 01:36:48;;;;;;;22.17;7.90;;;614.70;1715.20;;;;;;5093346;28;20165;-62
2021/09/17 01:39:14;;;;;;;30.23;8.52;;;614.70;1715.20;;;;;;5094487;28;20027;-62
2021/09/17 01:41:41;;;;;;;26.70;8.55;;;614.70;1715.20;;;;;;5094600;28;20028;-62
2021/09/17 01:44:07;;;;;;;28.52;8.48;;;614.60;1689.60;;;;;;5093716;28;20151;-62
2021/09/17 01:46:33;;;;;;;24.38;7.78;;;614.70;1689.60;;;;;;5094637;28;20032;-62
2021/09/17 01:48:59;;;;;;;24.75;7.53;;;614.70;1689.60;;;;;;5094482;28;20152;-62
2021/09/17 01:51:25;;;;;;;25.98;8.60;;;614.60;1689.60;;;;;;5094569;28;20523;-62
2021/09/17 01:53:51;;;;;;;25.38;7.15;;;614.60;1689.60;;;;;;5094400;28;20034;-62
2021/09/17 01:56:17;;;;;;;28.75;8.05;;;614.60;1689.60;;;;;;5094267;28;20508;-62
2021/09/17 01:58:43;;;;;;;32.60;7.72;;;614.60;1664.00;;;;;;5094034;28;20093;-62
2021/09/17 02:01:09;;;;;;;26.85;8.23;;;614.60;1664.00;;;;;;5092464;28;20482;-62
2021/09/17 02:03:35;;;;;;;27.42;8.07;;;614.60;1664.00;;;;;;5094087;28;20030;-62
2021/09/17 02:06:01;;;;;;;31.15;9.18;;;614.60;1664.00;;;;;;5093437;28;20028;-63
2021/09/17 02:08:26;;;;;;;28.80;8.50;;;614.60;1664.00;;;;;;5094185;28;20024;-62
2021/09/17 02:10:52;;;;;;;30.98;8.98;;;614.60;1664.00;;;;;;5093828;28;20051;-63
2021/09/17 02:13:20;;;;;;;26.88;7.70;;;614.60;1689.60;;;;;;5093788;28;20020;-62
2021/09/17 02:15:51;;;;;;;27.75;8.50;;;614.60;1689.60;;;;;;5092712;28;20343;-62
2021/09/17 02:18:18;;;;;;;24.23;7.13;;;614.50;1664.00;;;;;;5093469;28;20028;-62
2021/09/17 02:20:44;;;;;;;26.65;7.38;;;614.60;1664.00;;;;;;5094552;28;20053;-62
2021/09/17 02:23:10;;;;;;;24.42;7.32;;;614.60;1664.00;;;;;;5093367;28;20140;-63
2021/09/17 02:25:35;;;;;;;25.50;8.18;;;614.60;1664.00;;;;;;5093875;28;20089;-62
2021/09/17 02:28:02;;;;;;;32.72;8.45;;;614.60;1664.00;;;;;;5093773;28;20073;-62
2021/09/17 02:30:27;;;;;;;22.23;8.05;;;614.60;1664.00;;;;;;5093679;28;20020;-63
2021/09/17 02:32:53;;;;;;;24.58;7.40;;;614.50;1664.00;;;;;;5093921;28;20022;-63
2021/09/17 02:35:19;;;;;;;27.50;8.25;;;614.50;1664.00;;;;;;5093857;28;20103;-62
2021/09/17 02:37:45;;;;;;;20.20;7.40;;;614.50;1638.40;;;;;;5093653;28;20042;-62
2021/09/17 02:40:12;;;;;;;28.75;8.88;;;614.50;1638.40;;;;;;5093897;28;20020;-63
2021/09/17 02:42:38;;;;;;;28.08;8.02;;;614.50;1638.40;;;;;;5093876;28;20403;-62
2021/09/17 02:45:07;;;;;;;24.42;7.55;;;614.50;1638.40;;;;;;5093508;28;20020;-62
2021/09/17 02:47:33;;;;;;;25.15;7.25;;;614.50;1638.40;;;;;;5091944;28;20028;-62
2021/09/17 02:49:59;;;;;;;29.20;9.23;;;614.50;1638.40;;;;;;5093669;28;20144;-62
2021/09/17 02:52:24;;;;;;;29.52;7.53;;;614.50;1638.40;;;;;;5093874;28;20058;-62
2021/09/17 02:54:51;;;;;;;30.42;8.27;;;614.50;1638.40;;;;;;5093756;28;20366;-62
2021/09/17 02:57:17;;;;;;;31.98;8.70;;;614.50;1638.40;;;;;;5097385;28;20033;-63
2021/09/17 02:59:43;;;;;;;31.50;8.23;;;614.50;1638.40;;;;;;5097439;28;20028;-62
2021/09/17 03:02:09;;;;;;;43.63;9.93;;;614.50;1638.40;;;;;;5098047;28;20035;-62
2021/09/17 03:04:35;;;;;;;23.75;7.97;;;614.50;1638.40;;;;;;5096978;28;20039;-62
2021/09/17 03:07:01;;;;;;;33.78;9.10;;;614.50;1638.40;;;;;;5097412;28;20435;-62
2021/09/17 03:09:26;;;;;;;24.40;7.60;;;614.50;1638.40;;;;;;5097242;28;20026;-62
2021/09/17 03:11:53;;;;;;;26.35;7.88;;;614.50;1638.40;;;;;;5097044;28;20051;-62
2021/09/17 03:14:19;;;;;;;34.13;8.50;;;614.50;1638.40;;;;;;5095771;28;20024;-63
2021/09/17 03:16:44;;;;;;;27.25;8.25;;;614.50;1664.00;;;;;;5097107;28;20039;-64
2021/09/17 03:19:10;;;;;;;29.65;9.18;;;614.50;1664.00;;;;;;5097104;28;20110;-62
2021/09/17 03:21:36;;;;;;;37.83;9.23;;;614.60;1664.00;;;;;;5097081;28;20028;-63
2021/09/17 03:24:02;;;;;;;35.13;10.02;;;614.50;1664.00;;;;;;5097268;28;20028;-63
2021/09/17 03:26:27;;;;;;;30.67;7.38;;;614.50;1664.00;;;;;;5097158;28;20471;-62
2021/09/17 03:28:53;;;;;;;24.38;7.60;;;614.50;1664.00;;;;;;5096785;28;20351;-62
2021/09/17 03:31:19;;;;;;;30.65;8.55;;;614.50;1664.00;;;;;;5097198;28;20101;-62
2021/09/17 03:33:45;;;;;;;28.13;7.47;;;614.50;1664.00;;;;;;5096464;28;20027;-62
2021/09/17 03:36:11;;;;;;;32.92;7.88;;;614.50;1664.00;;;;;;5096863;28;20024;-62
2021/09/17 03:38:36;;;;;;;26.55;8.10;;;614.50;1638.40;;;;;;5096775;28;20457;-63
2021/09/17 03:41:03;;;;;;;29.20;8.38;;;614.50;1638.40;;;;;;5096757;28;20016;-62
2021/09/17 03:43:29;;;;;;;25.48;8.20;;;614.50;1664.00;;;;;;5096609;28;20028;-62
2021/09/17 03:45:54;;;;;;;31.77;8.38;;;614.50;1664.00;;;;;;5095403;28;20443;-62
2021/09/17 03:48:20;;;;;;;29.98;7.57;;;614.50;1664.00;;;;;;5096203;28;20078;-62
2021/09/17 03:50:46;;;;;;;27.30;7.72;;;614.50;1664.00;;;;;;5097219;28;20012;-63
2021/09/17 03:53:12;;;;;;;26.40;7.70;;;614.40;1664.00;;;;;;5095146;28;20036;-62
2021/09/17 03:55:39;;;;;;;28.38;7.72;;;614.50;1664.00;;;;;;5096660;28;20480;-62
2021/09/17 03:58:05;;;;;;;33.97;8.80;;;614.40;1664.00;;;;;;5096319;28;20267;-62
2021/09/17 04:00:31;;;;;;;35.42;8.55;;;614.40;1689.60;;;;;;5096545;28;20046;-62
2021/09/17 04:02:57;;;;;;;25.33;7.95;;;614.40;1664.00;;;;;;5096409;28;20031;-62
2021/09/17 04:05:22;;;;;;;28.25;8.02;;;614.40;1689.60;;;;;;5096232;28;20409;-62
2021/09/17 04:07:48;;;;;;;32.78;9.32;;;614.40;1689.60;;;;;;5095788;28;20488;-62
2021/09/17 04:10:15;;;;;;;29.48;8.95;;;614.40;1664.00;;;;;;5095576;28;20051;-62
2021/09/17 04:12:41;;;;;;;30.38;8.55;;;614.40;1664.00;;;;;;5095922;28;20032;-62
2021/09/17 04:15:08;;;;;;;32.67;10.05;;;614.40;1664.00;;;;;;5096244;28;20351;-62
2021/09/17 04:17:34;;;;;;;31.70;9.85;;;614.40;1664.00;;;;;;5094591;28;20044;-62
2021/09/17 04:19:59;;;;;;;42.65;11.80;;;614.40;1689.60;;;;;;5094618;28;20034;-62
2021/09/17 04:22:25;;;;;;;28.27;10.43;;;614.40;1689.60;;;;;;5096104;28;20032;-62
2021/09/17 04:24:53;;;;;;;34.25;9.18;;;614.40;1689.60;;;;;;5096206;28;20039;-62
2021/09/17 04:27:20;;;;;;;39.75;9.60;;;614.40;1715.20;;;;;;5094228;28;20035;-62
2021/09/17 04:29:46;;;;;;;41.92;11.68;;;614.40;1740.80;;;;;;5094613;28;20070;-62
2021/09/17 04:32:12;;;;;;;52.45;17.27;;;614.40;1766.40;;;;;;5096050;28;20028;-63
2021/09/17 04:34:37;;;;;;;52.03;24.65;;;614.40;1792.00;;;;;;5095864;28;20027;-62
2021/09/17 04:37:04;;;;;;;49.72;22.70;;;614.40;1817.60;;;;;;5095825;28;20036;-62
2021/09/17 04:39:29;;;;;;;59.10;23.48;;;589.70;1843.20;;;;;;5095836;28;20016;-62
2021/09/17 04:41:55;;;;;;;54.78;22.08;;;589.70;1843.20;;;;;;5095667;28;20039;-62
2021/09/17 04:44:21;;;;;;;36.25;22.60;;;589.70;1843.20;;;;;;5095517;28;20020;-62
2021/09/17 04:46:46;;;;;;;50.28;24.17;;;589.70;1868.80;;;;;;5095495;28;20028;-62
2021/09/17 04:49:12;;;;;;;48.70;26.95;;;589.60;1868.80;;;;;;5095274;28;20489;-62
2021/09/17 04:51:38;;;;;;;64.75;25.55;;;589.60;1868.80;;;;;;5095427;28;20028;-62
2021/09/17 04:54:04;;;;;;;52.72;26.30;;;589.60;1894.40;;;;;;5095268;28;20032;-62
2021/09/17 04:56:30;;;;;;;59.90;25.77;;;589.60;1894.40;;;;;;5095120;28;20024;-63
2021/09/17 04:58:56;;;;;;;36.78;18.33;;;589.60;1920.00;;;;;;5093419;28;20405;-62
2021/09/17 05:01:21;;;;;;;34.15;14.57;;;589.60;1894.40;;;;;;5095093;28;20446;-62
2021/09/17 05:03:50;;;;;;;38.05;12.98;;;589.60;1894.40;;;;;;5093591;28;20100;-62
2021/09/17 05:06:16;;;;;;;32.28;12.27;;;589.60;1894.40;;;;;;5095074;28;20103;-62
2021/09/17 05:08:42;;;;;;;30.92;11.20;;;589.50;1920.00;;;;;;5093922;28;20169;-62
2021/09/17 05:11:07;;;;;;;29.50;10.52;;;589.50;1894.40;;;;;;5093016;28;20066;-62
2021/09/17 05:13:33;;;;;;;26.23;9.45;;;589.50;1894.40;;;;;;5094967;28;20020;-62
2021/09/17 05:15:59;;;;;;;29.40;10.13;;;589.50;1894.40;;;;;;5094863;28;20038;-62
2021/09/17 05:18:24;;;;;;;27.05;9.70;;;589.50;1894.40;;;;;;5094411;28;20032;-63
2021/09/17 05:20:50;;;;;;;29.45;10.20;;;589.50;1894.40;;;;;;5094125;28;20162;-62
2021/09/17 05:23:16;;;;;;;29.20;9.35;;;589.50;1894.40;;;;;;5094722;28;20032;-62
2021/09/17 05:25:42;;;;;;;31.95;10.35;;;589.50;1894.40;;;;;;5094734;28;20038;-62
2021/09/17 05:28:08;;;;;;;31.05;10.20;;;589.50;1894.40;;;;;;5093912;28;20411;-62
2021/09/17 05:30:34;;;;;;;33.17;10.18;;;589.50;1894.40;;;;;;5094154;28;20051;-62
2021/09/17 05:32:59;;;;;;;30.98;9.57;;;589.50;1894.40;;;;;;5095039;28;20024;-62
2021/09/17 05:35:25;;;;;;;32.80;10.73;;;589.50;1920.00;;;;;;5094305;28;20032;-62
2021/09/17 05:37:51;;;;;;;35.50;10.65;;;589.50;1894.40;;;;;;5092977;28;20047;-62
2021/09/17 05:40:16;;;;;;;29.20;10.07;;;589.50;1920.00;;;;;;5094638;28;20028;-62
2021/09/17 05:42:42;;;;;;;37.45;11.95;;;589.50;1920.00;;;;;;5094234;28;20098;-62
2021/09/17 05:45:08;;;;;;;32.22;11.10;;;589.50;1920.00;;;;;;5094165;28;20024;-62
2021/09/17 05:47:34;;;;;;;40.08;13.60;;;589.50;1920.00;;;;;;5093062;28;20506;-62
2021/09/17 05:50:00;;;;;;;40.30;12.13;;;589.50;1920.00;;;;;;5094408;28;20047;-62
2021/09/17 05:52:26;;;;;;;40.55;11.77;;;589.50;1920.00;;;;;;5094361;28;20024;-62
2021/09/17 05:54:51;;;;;;;28.65;11.80;;;589.50;1920.00;;;;;;5094362;28;20104;-63
2021/09/17 05:57:17;;;;;;;35.58;13.45;;;589.50;1945.60;;;;;;5094053;28;20035;-62
2021/09/17 05:59:43;;;;;;;33.65;15.68;;;589.50;1945.60;;;;;;5094636;28;20461;-62
2021/09/17 06:02:08;;;;;;;31.98;15.10;;;589.50;1945.60;;;;;;5094119;28;20488;-62
2021/09/17 06:04:37;;;;;;;39.13;15.02;;;589.50;1945.60;;;;;;5093975;28;20016;-62
2021/09/17 06:07:03;;;;;;;37.25;14.38;;;589.50;1945.60;;;;;;5092450;28;20052;-64
2021/09/17 06:09:29;;;;;;;38.28;13.65;;;589.50;1920.00;;;;;;5093619;28;20046;-62
2021/09/17 06:11:55;;;;;;;30.60;11.52;;;589.60;1920.00;;;;;;5094116;28;20500;-63
2021/09/17 06:14:21;;;;;;;31.60;12.25;;;589.60;1920.00;;;;;;5093771;28;20101;-62
2021/09/17 06:16:47;;;;;;;35.05;13.77;;;589.60;1920.00;;;;;;5091617;28;20044;-63
2021/09/17 06:19:12;;;;;;;34.67;14.63;;;589.60;1920.00;;;;;;5093064;28;20149;-62
2021/09/17 06:21:39;;;;;;;31.75;15.23;;;589.60;1920.00;;;;;;5093295;28;20065;-64
2021/09/17 06:24:05;;;;;;;31.33;13.95;;;589.60;1920.00;;;;;;5093743;28;20107;-62
2021/09/17 06:26:31;;;;;;;34.63;13.20;;;589.60;1920.00;;;;;;5093896;28;20055;-62
2021/09/17 06:28:59;;;;;;;33.33;13.27;;;589.60;1920.00;;;;;;5093142;28;20388;-62
2021/09/17 06:31:26;;;;;;;27.52;12.38;;;589.70;1920.00;;;;;;5092836;28;20107;-62
2021/09/17 06:33:51;;;;;;;31.25;13.02;;;589.70;1920.00;;;;;;5093057;28;20069;-62
2021/09/17 06:36:17;;;;;;;29.15;11.98;;;589.70;1894.40;;;;;;5093323;28;20028;-62
2021/09/17 06:38:43;;;;;;;39.50;12.02;;;614.40;1894.40;;;;;;5093865;28;20059;-63
2021/09/17 06:41:08;;;;;;;32.15;10.10;;;614.40;1894.40;;;;;;5093944;28;20025;-65
2021/09/17 06:43:34;;;;;;;34.83;11.15;;;614.40;1868.80;;;;;;5093720;28;20047;-63
2021/09/17 06:46:00;;;;;;;43.88;11.80;;;614.40;1868.80;;;;;;5093466;28;20454;-62
2021/09/17 06:48:26;;;;;;;32.58;10.38;;;614.40;1843.20;;;;;;5091887;28;20553;-66
2021/09/17 06:50:51;;;;;;;37.33;11.93;;;614.50;1843.20;;;;;;5092706;28;20474;-65
2021/09/17 06:53:17;;;;;;;35.47;10.30;;;614.50;1843.20;;;;;;5093079;28;20020;-62
2021/09/17 06:55:43;;;;;;;32.78;10.02;;;614.60;1843.20;;;;;;5092240;28;20020;-66
2021/09/17 06:58:09;;;;;;;35.08;11.45;;;614.60;1817.60;;;;;;5091269;28;20040;-63
2021/09/17 07:00:38;;;;;;;23.75;8.75;;;614.70;1817.60;;;;;;5093757;28;20024;-63
2021/09/17 07:03:05;;;;;;;37.55;10.07;;;614.70;1792.00;;;;;;5092310;28;20024;-62
2021/09/17 07:05:31;;;;;;;61.60;37.67;;;614.70;1792.00;;;;;;5093693;28;20370;-62
2021/09/17 07:08:09;;;;;;;38.30;19.40;;;614.80;1792.00;;;;;;5093521;28;20024;-63
2021/09/17 07:10:38;;;;;;;41.10;18.55;;;614.80;1817.60;;;;;;5093580;28;20129;-62
2021/09/17 07:13:04;;;;;;;35.45;13.07;;;614.80;1817.60;;;;;;5093162;28;20504;-62
2021/09/17 07:15:30;;;;;;;34.97;11.73;;;614.90;1817.60;;;;;;5092198;28;20032;-62
2021/09/17 07:17:56;;;;;;;30.65;11.15;;;614.90;1792.00;;;;;;5093679;28;20043;-62
2021/09/17 07:20:22;;;;;;;27.25;10.32;;;615.00;1792.00;;;;;;5093392;28;20050;-62
2021/09/17 07:22:48;;;;;;;24.20;9.48;;;615.10;1766.40;;;;;;5093008;28;20073;-62
2021/09/17 07:25:14;;;;;;;29.70;9.85;;;615.20;1740.80;;;;;;5093306;28;20429;-63
2021/09/17 07:27:41;;;;;;;23.50;8.32;;;615.30;1766.40;;;;;;5093478;28;20086;-62
2021/09/17 07:30:07;;;;;;;21.92;7.20;;;615.30;1689.60;;;;;;5093218;28;20382;-62
2021/09/17 07:32:34;;;;;;;17.80;7.05;;;640.00;1664.00;;;;;;5092910;28;20072;-62
2021/09/17 07:35:00;;;;;;;19.90;6.47;;;640.20;1664.00;;;;;;5093282;28;20031;-62
2021/09/17 07:37:26;;;;;;;17.02;6.03;;;640.20;1612.80;;;;;;5093205;28;20036;-62
2021/09/17 07:39:51;;;;;;;21.05;7.15;;;640.30;1612.80;;;;;;5093000;28;20016;-62
2021/09/17 07:42:17;;;;;;;18.73;5.90;;;640.50;1612.80;;;;;;5093875;28;20028;-62
2021/09/17 07:44:43;;;;;;;19.05;5.75;;;640.50;1587.20;;;;;;5096726;28;20024;-62
2021/09/17 07:47:09;;;;;;;19.27;6.50;;;640.60;1587.20;;;;;;5096801;28;20027;-62
2021/09/17 07:49:35;;;;;;;12.07;4.90;;;640.70;1561.60;;;;;;5095248;28;20042;-62
2021/09/17 07:52:01;;;;;;;15.32;5.10;;;640.80;1561.60;;;;;;5096512;28;20103;-62
2021/09/17 07:54:28;;;;;;;14.70;5.47;;;640.90;1561.60;;;;;;5096772;28;20027;-62
2021/09/17 07:56:54;;;;;;;18.73;5.00;;;665.60;1561.60;;;;;;5096730;28;20036;-63
2021/09/17 07:59:20;;;;;;;19.58;5.32;;;665.60;1561.60;;;;;;5096561;28;20099;-62
2021/09/17 08:01:46;;;;;;;16.02;5.25;;;665.70;1536.00;;;;;;5095152;28;20087;-63
2021/09/17 08:04:12;;;;;;;15.95;5.35;;;665.80;1536.00;;;;;;5095960;28;20032;-63
2021/09/17 08:06:37;;;;;;;15.13;5.22;;;665.70;1510.40;;;;;;5096255;28;20099;-63
2021/09/17 08:09:06;;;;;;;16.42;5.28;;;665.80;1484.80;;;;;;5096606;28;20097;-63
2021/09/17 08:11:32;;;;;;;13.45;5.03;;;665.80;1484.80;;;;;;5096160;28;20056;-63
2021/09/17 08:13:58;;;;;;;20.33;5.28;;;665.80;1484.80;;;;;;5095781;28;20466;-63
2021/09/17 08:16:24;;;;;;;22.35;5.55;;;665.80;1484.80;;;;;;5096002;28;20024;-63
2021/09/17 08:18:49;;;;;;;23.35;5.38;;;665.80;1484.80;;;;;;5096294;28;20028;-62
2021/09/17 08:21:16;;;;;;;13.70;5.13;;;665.70;1484.80;;;;;;5095994;28;20031;-63
2021/09/17 08:23:41;;;;;;;10.18;4.47;;;665.70;1459.20;;;;;;5095900;28;20035;-62
2021/09/17 08:26:07;;;;;;;18.55;6.57;;;665.70;1459.20;;;;;;5095993;28;20032;-63
2021/09/17 08:28:33;;;;;;;16.30;5.45;;;665.70;1459.20;;;;;;5095906;28;20028;-62
2021/09/17 08:31:01;;;;;;;20.25;5.20;;;665.70;1459.20;;;;;;5096371;28;20108;-63
2021/09/17 08:33:27;;;;;;;15.45;5.18;;;665.70;1484.80;;;;;;5095785;28;20023;-63
2021/09/17 08:35:53;;;;;;;17.27;4.95;;;665.70;1484.80;;;;;;5095878;28;20024;-63
2021/09/17 08:38:19;;;;;;;15.13;5.50;;;665.80;1484.80;;;;;;5095578;28;20420;-63
2021/09/17 08:40:45;;;;;;;18.85;4.50;;;666.00;1484.80;;;;;;5095370;28;20028;-63
2021/09/17 08:43:10;;;;;;;10.93;4.78;;;666.00;1459.20;;;;;;5095299;28;20024;-63
2021/09/17 08:45:36;;;;;;;12.27;4.68;;;666.10;1459.20;;;;;;5093995;28;20032;-62
2021/09/17 08:48:02;;;;;;;8.15;3.65;;;666.20;1433.60;;;;;;5095490;28;20141;-63
2021/09/17 08:50:29;;;;;;;10.93;3.88;;;666.40;1459.20;;;;;;5095582;28;20023;-63
2021/09/17 08:52:55;;;;;;;17.60;4.70;;;666.40;1433.60;;;;;;5094975;28;20107;-63
2021/09/17 08:55:21;;;;;;;14.35;4.40;;;666.50;1433.60;;;;;;5095324;28;20027;-62
2021/09/17 08:57:48;;;;;;;16.77;4.85;;;691.20;1408.00;;;;;;5095414;28;20032;-62
2021/09/17 09:00:26;;;;;;;13.82;4.38;;;691.20;1382.40;;;;;;5095376;28;20350;-62
2021/09/17 09:02:54;;;;;;;22.85;4.90;;;691.20;1382.40;;;;;;5095056;28;20024;-62
2021/09/17 09:05:28;;;;;;;11.32;4.15;;;691.20;1382.40;;;;;;5095121;28;20024;-63
2021/09/17 09:07:54;;;;;;;14.77;4.38;;;691.20;1356.80;;;;;;5095314;28;20027;-62
2021/09/17 09:10:20;;;;;;;14.32;5.13;;;691.20;1356.80;;;;;;5094889;28;20047;-63
2021/09/17 09:12:51;;;;;;;12.30;4.60;;;691.20;1356.80;;;;;;5095067;28;20474;-62
2021/09/17 09:15:31;;;;;;;13.70;4.60;;;691.20;1331.20;;;;;;5094982;28;20026;-62
2021/09/17 09:17:58;;;;;;;21.63;3.85;;;691.20;1331.20;;;;;;5094842;28;20059;-62
2021/09/17 09:20:34;;;;;;;11.50;4.05;;;691.20;1331.20;;;;;;5095105;28;20028;-63
2021/09/17 09:23:10;;;;;;;15.40;4.22;;;691.30;1356.80;;;;;;5094848;28;20028;-63
2021/09/17 09:25:50;;;;;;;14.30;4.70;;;691.40;1331.20;;;;;;5094566;28;20554;-63
2021/09/17 09:28:19;;;;;;;11.35;4.20;;;691.50;1331.20;;;;;;5093318;28;20181;-63
2021/09/17 09:30:45;;;;;;;12.68;4.38;;;691.50;1305.60;;;;;;5094820;28;20020;-63
2021/09/17 09:33:29;;;;;;;10.98;4.47;;;691.60;1305.60;;;;;;5093293;28;20024;-62
2021/09/17 09:36:16;;;;;;;10.45;3.72;;;691.60;1305.60;;;;;;5094769;28;20016;-63
2021/09/17 09:38:48;;;;;;;16.00;4.45;;;691.70;1280.00;;;;;;5092610;28;20065;-63
2021/09/17 09:41:16;;;;;;;10.82;4.65;;;691.80;1280.00;;;;;;5094448;28;20067;-64
2021/09/17 09:44:03;;;;;;;19.60;4.43;;;691.80;1280.00;;;;;;5093844;28;20367;-63
2021/09/17 09:46:32;;;;;;;14.15;4.85;;;691.90;1254.40;;;;;;5094569;28;20140;-65
2021/09/17 09:49:27;;;;;;;17.58;4.40;;;691.90;1254.40;;;;;;5094311;28;20101;-63
2021/09/17 09:51:55;;;;;;;13.98;4.95;;;691.90;1254.40;;;;;;5091131;28;20377;-63
2021/09/17 09:54:25;;;;;;;13.43;4.60;;;691.90;1254.40;;;;;;5094100;28;20516;-63
2021/09/17 09:56:52;;;;;;;17.50;5.10;;;692.00;1254.40;;;;;;5094092;28;20508;-63
2021/09/17 09:59:29;;;;;;;13.40;5.50;;;692.00;1228.80;;;;;;5094384;28;20495;-64
2021/09/17 10:01:57;;;;;;;19.27;5.53;;;692.00;1228.80;;;;;;5109762;28;20032;-63
2021/09/17 10:04:24;;;;;;;23.25;6.47;;;692.00;1228.80;;;;;;5094336;28;20168;-64
2021/09/17 10:07:09;;;;;;;21.70;4.68;;;692.10;1228.80;;;;;;5093771;28;20134;-63
2021/09/17 10:09:40;;;;;;;13.38;5.18;;;692.10;1228.80;;;;;;5092567;28;20032;-63
2021/09/17 10:12:09;;;;;;;11.32;4.78;;;692.10;1228.80;;;;;;5094078;28;20529;-63
2021/09/17 10:14:36;;;;;;;14.45;5.60;;;716.80;1254.40;;;;;;5093641;28;20024;-63
2021/09/17 10:17:10;;;;;;;15.38;4.93;;;716.80;1254.40;;;;;;5094111;28;20036;-63
2021/09/17 10:19:36;;;;;;;29.10;5.90;;;716.90;1254.40;;;;;;5094302;28;20081;-63
2021/09/17 10:22:04;;;;;;;16.30;6.25;;;717.00;1254.40;;;;;;5094047;28;20032;-63
2021/09/17 10:24:43;;;;;;;19.60;5.18;;;717.20;1228.80;;;;;;5094005;28;20100;-63
2021/09/17 10:27:23;;;;;;;18.83;5.50;;;717.20;1228.80;;;;;;5092485;28;20528;-63
2021/09/17 10:29:54;;;;;;;18.67;5.18;;;717.20;1228.80;;;;;;5093794;28;20488;-63
2021/09/17 10:32:44;;;;;;;11.90;4.90;;;717.30;1228.80;;;;;;5093943;28;20038;-63
2021/09/17 10:35:15;;;;;;;14.57;4.43;;;717.30;1203.20;;;;;;5093642;28;20525;-63
2021/09/17 10:37:51;;;;;;;13.73;4.78;;;717.30;1203.20;;;;;;5093800;28;20044;-63
2021/09/17 10:40:17;;;;;;;12.32;4.63;;;717.30;1203.20;;;;;;5094137;28;20055;-62
2021/09/17 10:43:08;;;;;;;14.30;5.03;;;717.30;1203.20;;;;;;5093905;28;20470;-62
2021/09/17 10:45:47;;;;;;;14.60;4.57;;;717.40;1203.20;;;;;;5031421;28;20048;-63
2021/09/17 10:48:15;;;;;;;20.25;5.32;;;717.40;1177.60;;;;;;5031709;28;20069;-62
2021/09/17 10:51:03;;;;;;;17.15;4.68;;;717.50;1203.20;;;;;;5031644;28;20165;-62
2021/09/17 10:53:41;;;;;;;15.15;4.93;;;717.50;1228.80;;;;;;5031438;28;20147;-62
2021/09/17 10:56:14;;;;;;;16.25;5.13;;;717.50;1203.20;;;;;;5031338;28;20541;-62
2021/09/17 10:58:44;;;;;;;13.80;4.55;;;717.60;1203.20;;;;;;5031273;28;20037;-63
2021/09/17 11:01:10;;;;;;;14.95;4.78;;;717.60;1177.60;;;;;;5031532;28;20029;-63
2021/09/17 11:03:36;;;;;;;17.42;5.47;;;717.70;1177.60;;;;;;5014846;28;20527;-63
2021/09/17 11:06:21;;;;;;;16.50;6.20;;;742.50;1177.60;;;;;;5031340;28;20036;-63
2021/09/17 11:08:50;;;;;;;14.20;6.50;;;742.50;1177.60;;;;;;5015073;28;20034;-63
2021/09/17 11:11:27;;;;;;;14.18;5.55;;;742.60;1177.60;;;;;;5031168;28;20045;-63
2021/09/17 11:14:00;;;;;;;15.95;4.78;;;742.60;1177.60;;;;;;5031101;28;20093;-63
2021/09/17 11:16:27;;;;;;;16.23;5.13;;;742.60;1152.00;;;;;;5031967;28;20084;-63
2021/09/17 11:19:00;;;;;;;24.30;9.80;;;742.70;1152.00;;;;;;5035000;28;20040;-63
2021/09/17 11:21:33;;;;;;;21.47;8.23;;;742.70;1152.00;;;;;;5021774;28;20037;-63
2021/09/17 11:23:59;;;;;;;14.88;5.00;;;742.70;1152.00;;;;;;5097064;28;20261;-63
2021/09/17 11:26:28;;;;;;;18.20;5.03;;;742.70;1126.40;;;;;;5097245;28;20019;-63
2021/09/17 11:29:04;;;;;;;11.90;4.30;;;742.70;1126.40;;;;;;5095712;28;20027;-63
2021/09/17 11:31:34;;;;;;;12.45;4.85;;;742.60;1126.40;;;;;;5097060;28;20024;-63
2021/09/17 11:34:02;;;;;;;12.60;4.93;;;742.60;1126.40;;;;;;5097362;28;20028;-63
2021/09/17 11:36:58;;;;;;;16.08;4.88;;;742.60;1126.40;;;;;;5095332;28;20028;-63
2021/09/17 11:39:28;;;;;;;14.82;5.10;;;742.60;1126.40;;;;;;5096823;28;20526;-62
2021/09/17 11:41:59;;;;;;;17.48;4.35;;;742.50;1126.40;;;;;;5096950;28;20028;-62
2021/09/17 11:44:35;;;;;;;12.63;4.85;;;742.50;1100.80;;;;;;5096584;28;20024;-61
2021/09/17 11:47:06;;;;;;;16.50;5.20;;;742.50;1100.80;;;;;;5096705;28;20020;-62
2021/09/17 11:49:37;;;;;;;20.52;5.53;;;742.50;1100.80;;;;;;5112365;28;20036;-63
2021/09/17 11:52:06;;;;;;;13.65;4.70;;;742.50;1100.80;;;;;;5095378;28;20028;-62
2021/09/17 11:54:32;;;;;;;21.90;5.15;;;742.40;1126.40;;;;;;5097173;28;20028;-63
2021/09/17 11:57:04;;;;;;;13.07;5.18;;;742.40;1126.40;;;;;;5095446;28;20040;-63
2021/09/17 11:59:51;;;;;;;10.45;3.97;;;717.70;1152.00;;;;;;5094937;28;20020;-63
2021/09/17 12:02:24;;;;;;;10.02;4.05;;;742.40;1228.80;;;;;;5093399;28;20072;-63
2021/09/17 12:04:58;;;;;;;11.00;4.00;;;717.60;1203.20;;;;;;5092802;28;20024;-62
2021/09/17 12:07:24;;;;;;;;;;;717.60;1228.80;;;;;;5092858;28;20024;-62
2021/09/17 12:09:50;;;;;;;8.60;3.88;;;717.60;1254.40;;;;;;5094722;28;19904;-67